sensor_id;sensor_type;location;lat;lon;timestamp;P1;durP1;ratioP1;P2;durP2;ratioP2
29958;SDS011;16815;51.100;6.516;2023-12-22T00:00:45;3.83;;;1.90;;
29958;SDS011;16815;51.100;6.516;2023-12-22T00:03:12;5.27;;;1.60;;
29958;SDS011;16815;51.100;6.516;2023-12-22T00:05:39;3.53;;;1.53;;
29958;SDS011;16815;51.100;6.516;2023-12-22T00:08:05;4.63;;;2.00;;
29958;SDS011;16815;51.100;6.516;2023-12-22T00:10:31;2.73;;;1.70;;
29958;SDS011;16815;51.100;6.516;2023-12-22T00:12:57;6.00;;;1.63;;
29958;SDS011;16815;51.100;6.516;2023-12-22T00:15:23;6.50;;;1.63;;
29958;SDS011;16815;51.100;6.516;2023-12-22T00:17:49;5.40;;;1.97;;
29958;SDS011;16815;51.100;6.516;2023-12-22T00:20:15;7.83;;;1.57;;
29958;SDS011;16815;51.100;6.516;2023-12-22T00:22:41;4.77;;;1.57;;
29958;SDS011;16815;51.100;6.516;2023-12-22T00:25:07;5.83;;;1.67;;
29958;SDS011;16815;51.100;6.516;2023-12-22T00:27:34;3.50;;;2.00;;
29958;SDS011;16815;51.100;6.516;2023-12-22T00:30:00;5.20;;;1.70;;
29958;SDS011;16815;51.100;6.516;2023-12-22T00:32:26;4.63;;;2.00;;
29958;SDS011;16815;51.100;6.516;2023-12-22T00:34:52;2.07;;;1.53;;
29958;SDS011;16815;51.100;6.516;2023-12-22T00:37:18;7.23;;;1.90;;
29958;SDS011;16815;51.100;6.516;2023-12-22T00:39:44;6.13;;;1.70;;
29958;SDS011;16815;51.100;6.516;2023-12-22T00:42:10;2.80;;;1.63;;
29958;SDS011;16815;51.100;6.516;2023-12-22T00:44:36;4.97;;;2.00;;
29958;SDS011;16815;51.100;6.516;2023-12-22T00:47:04;4.33;;;1.60;;
29958;SDS011;16815;51.100;6.516;2023-12-22T00:49:30;8.70;;;2.40;;
29958;SDS011;16815;51.100;6.516;2023-12-22T00:51:56;4.97;;;1.57;;
29958;SDS011;16815;51.100;6.516;2023-12-22T00:54:22;4.30;;;1.67;;
29958;SDS011;16815;51.100;6.516;2023-12-22T00:56:48;3.27;;;1.80;;
29958;SDS011;16815;51.100;6.516;2023-12-22T00:59:14;5.13;;;1.83;;
29958;SDS011;16815;51.100;6.516;2023-12-22T01:01:40;7.40;;;2.13;;
29958;SDS011;16815;51.100;6.516;2023-12-22T01:04:06;6.47;;;1.87;;
29958;SDS011;16815;51.100;6.516;2023-12-22T01:06:36;8.60;;;2.17;;
29958;SDS011;16815;51.100;6.516;2023-12-22T01:09:02;7.33;;;2.20;;
29958;SDS011;16815;51.100;6.516;2023-12-22T01:11:28;4.40;;;1.77;;
29958;SDS011;16815;51.100;6.516;2023-12-22T01:13:54;5.77;;;2.00;;
29958;SDS011;16815;51.100;6.516;2023-12-22T01:16:20;6.77;;;1.80;;
29958;SDS011;16815;51.100;6.516;2023-12-22T01:18:47;5.13;;;1.97;;
29958;SDS011;16815;51.100;6.516;2023-12-22T01:21:13;7.20;;;2.00;;
29958;SDS011;16815;51.100;6.516;2023-12-22T01:23:39;4.87;;;2.10;;
29958;SDS011;16815;51.100;6.516;2023-12-22T01:26:05;2.83;;;1.60;;
29958;SDS011;16815;51.100;6.516;2023-12-22T01:28:33;4.03;;;1.87;;
29958;SDS011;16815;51.100;6.516;2023-12-22T01:30:59;5.33;;;1.80;;
29958;SDS011;16815;51.100;6.516;2023-12-22T01:33:26;5.90;;;1.83;;
29958;SDS011;16815;51.100;6.516;2023-12-22T01:35:52;5.57;;;2.10;;
29958;SDS011;16815;51.100;6.516;2023-12-22T01:38:18;5.00;;;2.00;;
29958;SDS011;16815;51.100;6.516;2023-12-22T01:40:44;5.27;;;2.00;;
29958;SDS011;16815;51.100;6.516;2023-12-22T01:43:10;5.27;;;1.97;;
29958;SDS011;16815;51.100;6.516;2023-12-22T01:45:36;7.20;;;2.10;;
29958;SDS011;16815;51.100;6.516;2023-12-22T01:48:02;6.00;;;1.90;;
29958;SDS011;16815;51.100;6.516;2023-12-22T01:50:28;7.10;;;2.23;;
29958;SDS011;16815;51.100;6.516;2023-12-22T01:52:54;4.33;;;1.73;;
29958;SDS011;16815;51.100;6.516;2023-12-22T01:55:21;7.40;;;2.27;;
29958;SDS011;16815;51.100;6.516;2023-12-22T01:57:47;4.80;;;2.27;;
29958;SDS011;16815;51.100;6.516;2023-12-22T02:00:13;7.53;;;1.90;;
29958;SDS011;16815;51.100;6.516;2023-12-22T02:02:40;6.13;;;1.80;;
29958;SDS011;16815;51.100;6.516;2023-12-22T02:05:08;5.87;;;2.20;;
29958;SDS011;16815;51.100;6.516;2023-12-22T02:07:36;6.43;;;2.03;;
29958;SDS011;16815;51.100;6.516;2023-12-22T02:10:02;6.70;;;1.80;;
29958;SDS011;16815;51.100;6.516;2023-12-22T02:12:28;6.97;;;2.30;;
29958;SDS011;16815;51.100;6.516;2023-12-22T02:14:54;6.53;;;2.30;;
29958;SDS011;16815;51.100;6.516;2023-12-22T02:17:24;6.53;;;2.00;;
29958;SDS011;16815;51.100;6.516;2023-12-22T02:19:51;5.53;;;2.10;;
29958;SDS011;16815;51.100;6.516;2023-12-22T02:22:17;9.83;;;2.40;;
29958;SDS011;16815;51.100;6.516;2023-12-22T02:24:43;9.47;;;2.70;;
29958;SDS011;16815;51.100;6.516;2023-12-22T02:32:31;5.70;;;2.03;;
29958;SDS011;16815;51.100;6.516;2023-12-22T02:34:58;7.73;;;2.53;;
29958;SDS011;16815;51.100;6.516;2023-12-22T02:37:24;7.97;;;2.30;;
29958;SDS011;16815;51.100;6.516;2023-12-22T02:39:51;10.40;;;2.20;;
29958;SDS011;16815;51.100;6.516;2023-12-22T02:42:18;7.00;;;2.20;;
29958;SDS011;16815;51.100;6.516;2023-12-22T02:44:48;11.83;;;2.20;;
29958;SDS011;16815;51.100;6.516;2023-12-22T02:47:14;8.60;;;2.50;;
29958;SDS011;16815;51.100;6.516;2023-12-22T02:49:40;9.83;;;2.40;;
29958;SDS011;16815;51.100;6.516;2023-12-22T02:52:06;7.97;;;2.53;;
29958;SDS011;16815;51.100;6.516;2023-12-22T02:54:32;6.63;;;2.30;;
29958;SDS011;16815;51.100;6.516;2023-12-22T02:56:58;9.60;;;2.20;;
29958;SDS011;16815;51.100;6.516;2023-12-22T02:59:25;8.93;;;2.20;;
29958;SDS011;16815;51.100;6.516;2023-12-22T03:01:53;6.83;;;2.03;;
29958;SDS011;16815;51.100;6.516;2023-12-22T03:04:19;9.77;;;2.60;;
29958;SDS011;16815;51.100;6.516;2023-12-22T03:06:45;10.97;;;2.47;;
29958;SDS011;16815;51.100;6.516;2023-12-22T03:09:11;13.80;;;3.00;;
29958;SDS011;16815;51.100;6.516;2023-12-22T03:11:37;5.83;;;2.07;;
29958;SDS011;16815;51.100;6.516;2023-12-22T03:14:03;11.67;;;2.87;;
29958;SDS011;16815;51.100;6.516;2023-12-22T03:16:29;7.23;;;2.50;;
29958;SDS011;16815;51.100;6.516;2023-12-22T03:18:55;9.50;;;2.53;;
29958;SDS011;16815;51.100;6.516;2023-12-22T03:21:21;12.10;;;3.00;;
29958;SDS011;16815;51.100;6.516;2023-12-22T03:23:47;10.30;;;2.53;;
29958;SDS011;16815;51.100;6.516;2023-12-22T03:26:13;9.40;;;2.97;;
29958;SDS011;16815;51.100;6.516;2023-12-22T03:28:39;9.77;;;2.47;;
29958;SDS011;16815;51.100;6.516;2023-12-22T03:31:05;12.43;;;3.20;;
29958;SDS011;16815;51.100;6.516;2023-12-22T03:33:31;7.30;;;3.53;;
29958;SDS011;16815;51.100;6.516;2023-12-22T03:35:57;11.13;;;3.20;;
29958;SDS011;16815;51.100;6.516;2023-12-22T03:38:23;9.73;;;2.60;;
29958;SDS011;16815;51.100;6.516;2023-12-22T03:40:49;7.93;;;2.80;;
29958;SDS011;16815;51.100;6.516;2023-12-22T03:43:15;8.83;;;2.73;;
29958;SDS011;16815;51.100;6.516;2023-12-22T03:45:41;10.10;;;2.53;;
29958;SDS011;16815;51.100;6.516;2023-12-22T03:48:07;9.10;;;3.17;;
29958;SDS011;16815;51.100;6.516;2023-12-22T03:50:34;9.17;;;2.07;;
29958;SDS011;16815;51.100;6.516;2023-12-22T03:52:59;6.90;;;2.23;;
29958;SDS011;16815;51.100;6.516;2023-12-22T03:55:25;8.67;;;2.30;;
29958;SDS011;16815;51.100;6.516;2023-12-22T03:57:51;8.80;;;2.37;;
29958;SDS011;16815;51.100;6.516;2023-12-22T04:00:17;4.40;;;2.13;;
29958;SDS011;16815;51.100;6.516;2023-12-22T04:02:45;8.87;;;2.30;;
29958;SDS011;16815;51.100;6.516;2023-12-22T04:05:15;6.87;;;2.73;;
29958;SDS011;16815;51.100;6.516;2023-12-22T04:07:56;7.07;;;2.40;;
29958;SDS011;16815;51.100;6.516;2023-12-22T04:10:24;10.67;;;3.03;;
29958;SDS011;16815;51.100;6.516;2023-12-22T04:12:53;7.10;;;2.43;;
29958;SDS011;16815;51.100;6.516;2023-12-22T04:15:22;10.07;;;2.30;;
29958;SDS011;16815;51.100;6.516;2023-12-22T04:17:59;11.17;;;2.27;;
29958;SDS011;16815;51.100;6.516;2023-12-22T04:20:44;9.80;;;2.87;;
29958;SDS011;16815;51.100;6.516;2023-12-22T04:27:19;8.33;;;2.90;;
29958;SDS011;16815;51.100;6.516;2023-12-22T04:29:44;10.90;;;2.87;;
29958;SDS011;16815;51.100;6.516;2023-12-22T04:32:19;8.77;;;2.57;;
29958;SDS011;16815;51.100;6.516;2023-12-22T04:35:33;6.33;;;2.43;;
29958;SDS011;16815;51.100;6.516;2023-12-22T04:47:59;6.87;;;2.33;;
29958;SDS011;16815;51.100;6.516;2023-12-22T05:23:35;9.70;;;3.30;;
29958;SDS011;16815;51.100;6.516;2023-12-22T05:26:10;12.47;;;3.27;;
29958;SDS011;16815;51.100;6.516;2023-12-22T06:43:18;4.93;;;1.87;;
29958;SDS011;16815;51.100;6.516;2023-12-22T07:14:04;19.40;;;4.40;;
29958;SDS011;16815;51.100;6.516;2023-12-22T07:16:40;17.60;;;3.70;;
29958;SDS011;16815;51.100;6.516;2023-12-22T07:35:11;27.27;;;5.57;;
29958;SDS011;16815;51.100;6.516;2023-12-22T08:08:57;25.10;;;5.43;;
29958;SDS011;16815;51.100;6.516;2023-12-22T08:23:08;31.27;;;6.20;;
29958;SDS011;16815;51.100;6.516;2023-12-22T08:31:30;23.47;;;5.70;;
29958;SDS011;16815;51.100;6.516;2023-12-22T08:33:59;27.93;;;5.70;;
29958;SDS011;16815;51.100;6.516;2023-12-22T08:36:25;30.10;;;6.60;;
29958;SDS011;16815;51.100;6.516;2023-12-22T08:38:51;33.10;;;6.97;;
29958;SDS011;16815;51.100;6.516;2023-12-22T08:41:17;30.93;;;6.30;;
29958;SDS011;16815;51.100;6.516;2023-12-22T08:43:43;28.47;;;6.10;;
29958;SDS011;16815;51.100;6.516;2023-12-22T08:46:29;33.40;;;7.13;;
29958;SDS011;16815;51.100;6.516;2023-12-22T08:48:56;31.63;;;6.37;;
29958;SDS011;16815;51.100;6.516;2023-12-22T08:51:22;23.17;;;6.60;;
29958;SDS011;16815;51.100;6.516;2023-12-22T08:53:50;25.83;;;6.13;;
29958;SDS011;16815;51.100;6.516;2023-12-22T08:56:17;35.50;;;6.67;;
29958;SDS011;16815;51.100;6.516;2023-12-22T08:58:43;27.27;;;6.13;;
29958;SDS011;16815;51.100;6.516;2023-12-22T09:01:15;26.37;;;6.50;;
29958;SDS011;16815;51.100;6.516;2023-12-22T09:03:41;29.87;;;7.57;;
29958;SDS011;16815;51.100;6.516;2023-12-22T09:06:11;24.87;;;5.37;;
29958;SDS011;16815;51.100;6.516;2023-12-22T09:08:38;27.57;;;6.63;;
29958;SDS011;16815;51.100;6.516;2023-12-22T09:11:04;30.40;;;7.07;;
29958;SDS011;16815;51.100;6.516;2023-12-22T09:13:30;26.10;;;6.00;;
29958;SDS011;16815;51.100;6.516;2023-12-22T09:15:58;30.50;;;6.70;;
29958;SDS011;16815;51.100;6.516;2023-12-22T09:18:24;27.60;;;7.00;;
29958;SDS011;16815;51.100;6.516;2023-12-22T09:20:50;24.63;;;6.13;;
29958;SDS011;16815;51.100;6.516;2023-12-22T09:23:16;26.33;;;5.83;;
29958;SDS011;16815;51.100;6.516;2023-12-22T09:25:42;22.57;;;6.03;;
29958;SDS011;16815;51.100;6.516;2023-12-22T09:28:08;23.20;;;5.67;;
29958;SDS011;16815;51.100;6.516;2023-12-22T09:30:34;22.10;;;6.00;;
29958;SDS011;16815;51.100;6.516;2023-12-22T09:33:00;29.97;;;7.07;;
29958;SDS011;16815;51.100;6.516;2023-12-22T09:35:26;27.03;;;6.37;;
29958;SDS011;16815;51.100;6.516;2023-12-22T09:37:53;22.97;;;6.17;;
29958;SDS011;16815;51.100;6.516;2023-12-22T09:40:19;19.57;;;5.33;;
29958;SDS011;16815;51.100;6.516;2023-12-22T09:42:46;21.03;;;5.90;;
29958;SDS011;16815;51.100;6.516;2023-12-22T09:45:13;19.23;;;5.37;;
29958;SDS011;16815;51.100;6.516;2023-12-22T09:47:43;20.53;;;5.27;;
29958;SDS011;16815;51.100;6.516;2023-12-22T09:50:10;19.20;;;5.17;;
29958;SDS011;16815;51.100;6.516;2023-12-22T09:52:44;16.97;;;6.13;;
29958;SDS011;16815;51.100;6.516;2023-12-22T09:55:14;17.73;;;4.93;;
29958;SDS011;16815;51.100;6.516;2023-12-22T09:57:40;19.00;;;4.63;;
29958;SDS011;16815;51.100;6.516;2023-12-22T10:00:08;18.23;;;4.93;;
29958;SDS011;16815;51.100;6.516;2023-12-22T10:02:34;16.30;;;4.30;;
29958;SDS011;16815;51.100;6.516;2023-12-22T10:05:01;13.57;;;3.63;;
29958;SDS011;16815;51.100;6.516;2023-12-22T10:07:28;16.27;;;4.67;;
29958;SDS011;16815;51.100;6.516;2023-12-22T10:09:54;12.40;;;3.47;;
29958;SDS011;16815;51.100;6.516;2023-12-22T10:12:21;12.57;;;3.70;;
29958;SDS011;16815;51.100;6.516;2023-12-22T10:14:47;12.23;;;3.60;;
29958;SDS011;16815;51.100;6.516;2023-12-22T10:17:14;10.50;;;3.30;;
29958;SDS011;16815;51.100;6.516;2023-12-22T10:19:42;9.57;;;3.30;;
29958;SDS011;16815;51.100;6.516;2023-12-22T10:22:08;7.80;;;3.30;;
29958;SDS011;16815;51.100;6.516;2023-12-22T10:24:40;10.67;;;3.20;;
29958;SDS011;16815;51.100;6.516;2023-12-22T10:27:12;6.57;;;2.70;;
29958;SDS011;16815;51.100;6.516;2023-12-22T10:29:39;8.13;;;3.63;;
29958;SDS011;16815;51.100;6.516;2023-12-22T10:32:05;7.37;;;3.50;;
29958;SDS011;16815;51.100;6.516;2023-12-22T10:34:31;10.77;;;4.07;;
29958;SDS011;16815;51.100;6.516;2023-12-22T10:37:00;7.17;;;3.77;;
29958;SDS011;16815;51.100;6.516;2023-12-22T10:39:30;8.67;;;3.40;;
29958;SDS011;16815;51.100;6.516;2023-12-22T10:41:57;5.40;;;3.37;;
29958;SDS011;16815;51.100;6.516;2023-12-22T10:44:23;8.53;;;3.47;;
29958;SDS011;16815;51.100;6.516;2023-12-22T10:46:51;6.13;;;3.00;;
29958;SDS011;16815;51.100;6.516;2023-12-22T10:49:18;5.00;;;3.00;;
29958;SDS011;16815;51.100;6.516;2023-12-22T10:51:44;4.30;;;2.80;;
29958;SDS011;16815;51.100;6.516;2023-12-22T10:54:10;5.90;;;3.27;;
29958;SDS011;16815;51.100;6.516;2023-12-22T10:56:36;6.60;;;2.97;;
29958;SDS011;16815;51.100;6.516;2023-12-22T10:59:02;5.73;;;3.00;;
29958;SDS011;16815;51.100;6.516;2023-12-22T11:01:30;6.40;;;2.90;;
29958;SDS011;16815;51.100;6.516;2023-12-22T11:04:01;6.97;;;3.00;;
29958;SDS011;16815;51.100;6.516;2023-12-22T11:06:29;5.00;;;2.73;;
29958;SDS011;16815;51.100;6.516;2023-12-22T11:08:56;3.67;;;3.13;;
29958;SDS011;16815;51.100;6.516;2023-12-22T11:11:26;6.17;;;2.93;;
29958;SDS011;16815;51.100;6.516;2023-12-22T11:13:59;7.70;;;3.23;;
29958;SDS011;16815;51.100;6.516;2023-12-22T11:16:27;5.77;;;3.53;;
29958;SDS011;16815;51.100;6.516;2023-12-22T11:18:53;8.33;;;3.60;;
29958;SDS011;16815;51.100;6.516;2023-12-22T11:21:23;5.03;;;3.07;;
29958;SDS011;16815;51.100;6.516;2023-12-22T11:23:50;6.27;;;3.23;;
29958;SDS011;16815;51.100;6.516;2023-12-22T11:26:17;3.87;;;2.80;;
29958;SDS011;16815;51.100;6.516;2023-12-22T11:28:44;6.27;;;2.53;;
29958;SDS011;16815;51.100;6.516;2023-12-22T11:31:11;10.07;;;2.83;;
29958;SDS011;16815;51.100;6.516;2023-12-22T11:33:37;5.37;;;2.60;;
29958;SDS011;16815;51.100;6.516;2023-12-22T11:36:05;3.17;;;2.30;;
29958;SDS011;16815;51.100;6.516;2023-12-22T11:38:32;4.00;;;2.17;;
29958;SDS011;16815;51.100;6.516;2023-12-22T11:40:59;3.77;;;2.20;;
29958;SDS011;16815;51.100;6.516;2023-12-22T11:43:26;4.10;;;2.30;;
29958;SDS011;16815;51.100;6.516;2023-12-22T11:45:52;2.57;;;1.97;;
29958;SDS011;16815;51.100;6.516;2023-12-22T11:48:19;7.20;;;2.37;;
29958;SDS011;16815;51.100;6.516;2023-12-22T11:50:46;4.60;;;2.20;;
29958;SDS011;16815;51.100;6.516;2023-12-22T11:53:19;4.47;;;2.20;;
29958;SDS011;16815;51.100;6.516;2023-12-22T11:56:04;5.63;;;2.40;;
29958;SDS011;16815;51.100;6.516;2023-12-22T12:01:03;4.70;;;2.10;;
29958;SDS011;16815;51.100;6.516;2023-12-22T12:06:46;4.07;;;2.00;;
29958;SDS011;16815;51.100;6.516;2023-12-22T12:09:19;4.43;;;1.70;;
29958;SDS011;16815;51.100;6.516;2023-12-22T12:12:14;5.10;;;1.90;;
29958;SDS011;16815;51.100;6.516;2023-12-22T12:14:41;4.60;;;2.03;;
29958;SDS011;16815;51.100;6.516;2023-12-22T12:17:08;5.03;;;1.93;;
29958;SDS011;16815;51.100;6.516;2023-12-22T12:19:38;3.87;;;1.70;;
29958;SDS011;16815;51.100;6.516;2023-12-22T12:22:06;3.70;;;1.77;;
29958;SDS011;16815;51.100;6.516;2023-12-22T12:24:34;7.80;;;1.97;;
29958;SDS011;16815;51.100;6.516;2023-12-22T12:27:01;4.60;;;1.60;;
29958;SDS011;16815;51.100;6.516;2023-12-22T12:29:28;6.60;;;1.80;;
29958;SDS011;16815;51.100;6.516;2023-12-22T12:31:54;2.57;;;1.57;;
29958;SDS011;16815;51.100;6.516;2023-12-22T12:34:28;6.10;;;1.97;;
29958;SDS011;16815;51.100;6.516;2023-12-22T12:36:54;3.30;;;1.50;;
29958;SDS011;16815;51.100;6.516;2023-12-22T12:39:21;4.43;;;1.70;;
29958;SDS011;16815;51.100;6.516;2023-12-22T12:41:53;4.20;;;1.50;;
29958;SDS011;16815;51.100;6.516;2023-12-22T12:44:19;4.90;;;1.80;;
29958;SDS011;16815;51.100;6.516;2023-12-22T12:46:45;3.63;;;1.60;;
29958;SDS011;16815;51.100;6.516;2023-12-22T12:49:12;2.40;;;1.40;;
29958;SDS011;16815;51.100;6.516;2023-12-22T12:51:42;6.73;;;2.13;;
29958;SDS011;16815;51.100;6.516;2023-12-22T12:54:09;4.10;;;1.77;;
29958;SDS011;16815;51.100;6.516;2023-12-22T12:56:39;3.20;;;1.83;;
29958;SDS011;16815;51.100;6.516;2023-12-22T12:59:08;4.57;;;1.83;;
29958;SDS011;16815;51.100;6.516;2023-12-22T13:04:38;4.40;;;1.60;;
29958;SDS011;16815;51.100;6.516;2023-12-22T13:07:04;2.80;;;1.50;;
29958;SDS011;16815;51.100;6.516;2023-12-22T13:09:33;2.57;;;1.40;;
29958;SDS011;16815;51.100;6.516;2023-12-22T13:11:59;2.23;;;1.67;;
29958;SDS011;16815;51.100;6.516;2023-12-22T13:14:26;3.10;;;1.90;;
29958;SDS011;16815;51.100;6.516;2023-12-22T13:16:53;5.43;;;1.67;;
29958;SDS011;16815;51.100;6.516;2023-12-22T13:19:21;5.73;;;2.20;;
29958;SDS011;16815;51.100;6.516;2023-12-22T13:21:48;5.00;;;1.70;;
29958;SDS011;16815;51.100;6.516;2023-12-22T13:24:15;3.47;;;1.60;;
29958;SDS011;16815;51.100;6.516;2023-12-22T13:26:41;3.17;;;1.80;;
29958;SDS011;16815;51.100;6.516;2023-12-22T13:29:07;6.20;;;1.93;;
29958;SDS011;16815;51.100;6.516;2023-12-22T13:31:38;4.10;;;1.67;;
29958;SDS011;16815;51.100;6.516;2023-12-22T13:34:10;6.87;;;1.80;;
29958;SDS011;16815;51.100;6.516;2023-12-22T13:36:37;5.53;;;1.63;;
29958;SDS011;16815;51.100;6.516;2023-12-22T13:39:03;3.10;;;1.67;;
29958;SDS011;16815;51.100;6.516;2023-12-22T13:41:35;5.07;;;1.50;;
29958;SDS011;16815;51.100;6.516;2023-12-22T13:44:04;3.83;;;1.70;;
29958;SDS011;16815;51.100;6.516;2023-12-22T13:46:30;5.20;;;1.80;;
29958;SDS011;16815;51.100;6.516;2023-12-22T13:49:12;3.97;;;1.87;;
29958;SDS011;16815;51.100;6.516;2023-12-22T13:51:42;3.93;;;1.83;;
29958;SDS011;16815;51.100;6.516;2023-12-22T13:56:59;5.87;;;1.93;;
29958;SDS011;16815;51.100;6.516;2023-12-22T13:59:34;5.23;;;1.70;;
29958;SDS011;16815;51.100;6.516;2023-12-22T14:02:03;3.53;;;1.83;;
29958;SDS011;16815;51.100;6.516;2023-12-22T14:04:29;3.13;;;1.80;;
29958;SDS011;16815;51.100;6.516;2023-12-22T14:06:57;5.43;;;2.10;;
29958;SDS011;16815;51.100;6.516;2023-12-22T14:09:23;7.67;;;2.70;;
29958;SDS011;16815;51.100;6.516;2023-12-22T14:11:49;5.73;;;1.83;;
29958;SDS011;16815;51.100;6.516;2023-12-22T14:14:15;4.77;;;1.70;;
29958;SDS011;16815;51.100;6.516;2023-12-22T14:16:43;6.10;;;1.80;;
29958;SDS011;16815;51.100;6.516;2023-12-22T14:19:09;8.40;;;1.93;;
29958;SDS011;16815;51.100;6.516;2023-12-22T14:21:35;5.93;;;2.00;;
29958;SDS011;16815;51.100;6.516;2023-12-22T14:24:00;3.37;;;1.57;;
29958;SDS011;16815;51.100;6.516;2023-12-22T14:26:28;6.53;;;1.90;;
29958;SDS011;16815;51.100;6.516;2023-12-22T14:28:54;6.20;;;1.93;;
29958;SDS011;16815;51.100;6.516;2023-12-22T14:31:20;6.80;;;1.80;;
29958;SDS011;16815;51.100;6.516;2023-12-22T14:33:46;6.20;;;2.10;;
29958;SDS011;16815;51.100;6.516;2023-12-22T14:36:12;4.63;;;1.90;;
29958;SDS011;16815;51.100;6.516;2023-12-22T14:38:38;7.83;;;2.23;;
29958;SDS011;16815;51.100;6.516;2023-12-22T14:41:04;6.03;;;1.80;;
29958;SDS011;16815;51.100;6.516;2023-12-22T14:43:30;3.60;;;1.80;;
29958;SDS011;16815;51.100;6.516;2023-12-22T14:45:56;3.70;;;1.87;;
29958;SDS011;16815;51.100;6.516;2023-12-22T14:48:22;5.07;;;1.80;;
29958;SDS011;16815;51.100;6.516;2023-12-22T14:50:48;4.97;;;2.00;;
29958;SDS011;16815;51.100;6.516;2023-12-22T14:53:14;4.83;;;2.17;;
29958;SDS011;16815;51.100;6.516;2023-12-22T14:55:40;6.40;;;1.90;;
29958;SDS011;16815;51.100;6.516;2023-12-22T14:58:06;4.43;;;1.70;;
29958;SDS011;16815;51.100;6.516;2023-12-22T15:00:34;7.10;;;2.00;;
29958;SDS011;16815;51.100;6.516;2023-12-22T15:03:00;6.20;;;1.97;;
29958;SDS011;16815;51.100;6.516;2023-12-22T15:05:27;8.20;;;1.97;;
29958;SDS011;16815;51.100;6.516;2023-12-22T15:07:55;4.57;;;1.70;;
29958;SDS011;16815;51.100;6.516;2023-12-22T15:10:21;5.63;;;1.80;;
29958;SDS011;16815;51.100;6.516;2023-12-22T15:12:47;5.97;;;2.10;;
29958;SDS011;16815;51.100;6.516;2023-12-22T15:15:13;5.73;;;2.30;;
29958;SDS011;16815;51.100;6.516;2023-12-22T15:17:39;6.33;;;1.93;;
29958;SDS011;16815;51.100;6.516;2023-12-22T15:20:05;3.90;;;1.60;;
29958;SDS011;16815;51.100;6.516;2023-12-22T15:22:33;5.13;;;2.20;;
29958;SDS011;16815;51.100;6.516;2023-12-22T15:24:59;4.70;;;2.13;;
29958;SDS011;16815;51.100;6.516;2023-12-22T15:27:25;6.63;;;1.90;;
29958;SDS011;16815;51.100;6.516;2023-12-22T15:29:52;5.53;;;1.90;;
29958;SDS011;16815;51.100;6.516;2023-12-22T15:32:18;5.80;;;2.43;;
29958;SDS011;16815;51.100;6.516;2023-12-22T15:34:44;6.57;;;2.13;;
29958;SDS011;16815;51.100;6.516;2023-12-22T15:37:11;7.93;;;2.27;;
29958;SDS011;16815;51.100;6.516;2023-12-22T15:39:38;5.67;;;1.83;;
29958;SDS011;16815;51.100;6.516;2023-12-22T15:42:04;4.43;;;2.00;;
29958;SDS011;16815;51.100;6.516;2023-12-22T15:44:30;6.13;;;1.90;;
29958;SDS011;16815;51.100;6.516;2023-12-22T15:46:56;5.37;;;2.20;;
29958;SDS011;16815;51.100;6.516;2023-12-22T15:49:22;7.53;;;1.80;;
29958;SDS011;16815;51.100;6.516;2023-12-22T15:51:48;5.73;;;2.67;;
29958;SDS011;16815;51.100;6.516;2023-12-22T15:54:17;7.00;;;2.00;;
29958;SDS011;16815;51.100;6.516;2023-12-22T15:56:44;6.47;;;2.40;;
29958;SDS011;16815;51.100;6.516;2023-12-22T15:59:10;5.67;;;1.97;;
29958;SDS011;16815;51.100;6.516;2023-12-22T16:01:41;7.83;;;2.30;;
29958;SDS011;16815;51.100;6.516;2023-12-22T16:04:08;6.33;;;2.43;;
29958;SDS011;16815;51.100;6.516;2023-12-22T16:06:34;4.80;;;1.77;;
29958;SDS011;16815;51.100;6.516;2023-12-22T16:09:00;4.97;;;1.90;;
29958;SDS011;16815;51.100;6.516;2023-12-22T16:11:26;5.43;;;2.00;;
29958;SDS011;16815;51.100;6.516;2023-12-22T16:13:51;11.00;;;2.33;;
29958;SDS011;16815;51.100;6.516;2023-12-22T16:16:20;4.57;;;1.60;;
29958;SDS011;16815;51.100;6.516;2023-12-22T16:18:46;6.53;;;2.10;;
29958;SDS011;16815;51.100;6.516;2023-12-22T16:21:12;6.70;;;2.50;;
29958;SDS011;16815;51.100;6.516;2023-12-22T16:23:38;6.97;;;2.40;;
29958;SDS011;16815;51.100;6.516;2023-12-22T16:26:04;6.93;;;2.60;;
29958;SDS011;16815;51.100;6.516;2023-12-22T16:28:32;7.53;;;2.10;;
29958;SDS011;16815;51.100;6.516;2023-12-22T16:30:58;6.60;;;2.67;;
29958;SDS011;16815;51.100;6.516;2023-12-22T16:33:24;6.47;;;2.43;;
29958;SDS011;16815;51.100;6.516;2023-12-22T16:35:50;6.33;;;2.17;;
29958;SDS011;16815;51.100;6.516;2023-12-22T16:38:16;4.90;;;2.23;;
29958;SDS011;16815;51.100;6.516;2023-12-22T16:40:42;6.80;;;1.93;;
29958;SDS011;16815;51.100;6.516;2023-12-22T16:43:09;5.80;;;2.10;;
29958;SDS011;16815;51.100;6.516;2023-12-22T16:45:35;6.03;;;1.93;;
29958;SDS011;16815;51.100;6.516;2023-12-22T16:48:01;5.90;;;2.37;;
29958;SDS011;16815;51.100;6.516;2023-12-22T16:50:27;5.70;;;2.07;;
29958;SDS011;16815;51.100;6.516;2023-12-22T16:52:53;6.83;;;2.33;;
29958;SDS011;16815;51.100;6.516;2023-12-22T16:55:20;5.57;;;2.07;;
29958;SDS011;16815;51.100;6.516;2023-12-22T16:57:45;7.97;;;2.30;;
29958;SDS011;16815;51.100;6.516;2023-12-22T17:00:12;6.43;;;2.00;;
29958;SDS011;16815;51.100;6.516;2023-12-22T17:02:38;8.37;;;2.13;;
29958;SDS011;16815;51.100;6.516;2023-12-22T17:05:04;6.57;;;2.13;;
29958;SDS011;16815;51.100;6.516;2023-12-22T17:07:30;7.00;;;2.30;;
29958;SDS011;16815;51.100;6.516;2023-12-22T17:09:56;7.80;;;2.10;;
29958;SDS011;16815;51.100;6.516;2023-12-22T17:12:22;4.43;;;1.73;;
29958;SDS011;16815;51.100;6.516;2023-12-22T17:14:48;4.63;;;2.20;;
29958;SDS011;16815;51.100;6.516;2023-12-22T17:17:14;7.07;;;2.57;;
29958;SDS011;16815;51.100;6.516;2023-12-22T17:19:40;4.67;;;1.83;;
29958;SDS011;16815;51.100;6.516;2023-12-22T17:22:06;8.23;;;2.60;;
29958;SDS011;16815;51.100;6.516;2023-12-22T17:24:32;4.43;;;2.10;;
29958;SDS011;16815;51.100;6.516;2023-12-22T17:26:58;6.70;;;2.20;;
29958;SDS011;16815;51.100;6.516;2023-12-22T17:29:24;7.37;;;2.43;;
29958;SDS011;16815;51.100;6.516;2023-12-22T17:31:50;7.97;;;2.10;;
29958;SDS011;16815;51.100;6.516;2023-12-22T17:34:21;7.43;;;2.10;;
29958;SDS011;16815;51.100;6.516;2023-12-22T17:36:47;5.73;;;1.80;;
29958;SDS011;16815;51.100;6.516;2023-12-22T17:39:13;4.97;;;2.07;;
29958;SDS011;16815;51.100;6.516;2023-12-22T17:41:39;4.50;;;1.90;;
29958;SDS011;16815;51.100;6.516;2023-12-22T17:44:05;6.33;;;2.10;;
29958;SDS011;16815;51.100;6.516;2023-12-22T17:46:31;7.60;;;2.43;;
29958;SDS011;16815;51.100;6.516;2023-12-22T17:48:57;8.43;;;2.43;;
29958;SDS011;16815;51.100;6.516;2023-12-22T17:51:23;6.77;;;1.93;;
29958;SDS011;16815;51.100;6.516;2023-12-22T17:53:48;5.80;;;2.20;;
29958;SDS011;16815;51.100;6.516;2023-12-22T17:56:14;9.30;;;2.40;;
29958;SDS011;16815;51.100;6.516;2023-12-22T17:58:40;5.10;;;2.13;;
29958;SDS011;16815;51.100;6.516;2023-12-22T18:01:06;6.23;;;2.17;;
29958;SDS011;16815;51.100;6.516;2023-12-22T18:03:32;6.47;;;1.97;;
29958;SDS011;16815;51.100;6.516;2023-12-22T18:05:58;6.27;;;2.10;;
29958;SDS011;16815;51.100;6.516;2023-12-22T18:08:24;5.37;;;1.87;;
29958;SDS011;16815;51.100;6.516;2023-12-22T18:10:50;6.00;;;2.53;;
29958;SDS011;16815;51.100;6.516;2023-12-22T18:13:16;4.77;;;1.90;;
29958;SDS011;16815;51.100;6.516;2023-12-22T18:15:42;4.87;;;2.07;;
29958;SDS011;16815;51.100;6.516;2023-12-22T18:18:08;6.13;;;1.80;;
29958;SDS011;16815;51.100;6.516;2023-12-22T18:20:34;7.53;;;2.43;;
29958;SDS011;16815;51.100;6.516;2023-12-22T18:23:00;6.63;;;2.30;;
29958;SDS011;16815;51.100;6.516;2023-12-22T18:25:26;7.97;;;2.67;;
29958;SDS011;16815;51.100;6.516;2023-12-22T18:27:52;6.30;;;2.07;;
29958;SDS011;16815;51.100;6.516;2023-12-22T18:30:18;6.17;;;2.00;;
29958;SDS011;16815;51.100;6.516;2023-12-22T18:32:44;6.97;;;2.17;;
29958;SDS011;16815;51.100;6.516;2023-12-22T18:35:10;4.70;;;1.83;;
29958;SDS011;16815;51.100;6.516;2023-12-22T18:37:36;6.80;;;2.10;;